sensor_id;sensor_type;location;lat;lon;timestamp;pressure;altitude;pressure_sealevel;temperature;humidity
73106;BME280;61559;50.476;15.588;2022-09-01T00:01:16;98060.56;;;12.15;78.52
73106;BME280;61559;50.476;15.588;2022-09-01T00:03:50;98061.77;;;12.10;78.53
73106;BME280;61559;50.476;15.588;2022-09-01T00:06:23;98068.41;;;12.05;78.48
73106;BME280;61559;50.476;15.588;2022-09-01T00:08:55;98063.87;;;12.03;78.54
73106;BME280;61559;50.476;15.588;2022-09-01T00:11:27;98066.20;;;12.01;78.53
73106;BME280;61559;50.476;15.588;2022-09-01T00:14:00;98063.69;;;12.00;78.48
73106;BME280;61559;50.476;15.588;2022-09-01T00:16:32;98069.09;;;12.01;78.49
73106;BME280;61559;50.476;15.588;2022-09-01T00:19:05;98071.04;;;12.00;78.57
73106;BME280;61559;50.476;15.588;2022-09-01T00:21:42;98068.45;;;12.00;78.40
73106;BME280;61559;50.476;15.588;2022-09-01T00:24:16;98071.79;;;11.99;78.38
73106;BME280;61559;50.476;15.588;2022-09-01T00:26:48;98073.61;;;11.96;78.26
73106;BME280;61559;50.476;15.588;2022-09-01T00:29:20;98076.00;;;11.94;78.18
73106;BME280;61559;50.476;15.588;2022-09-01T00:31:52;98075.23;;;11.92;78.41
73106;BME280;61559;50.476;15.588;2022-09-01T00:34:23;98077.05;;;11.88;78.70
73106;BME280;61559;50.476;15.588;2022-09-01T00:36:54;98076.98;;;11.80;78.76
73106;BME280;61559;50.476;15.588;2022-09-01T00:39:25;98077.17;;;11.74;78.95
73106;BME280;61559;50.476;15.588;2022-09-01T00:41:56;98078.42;;;11.70;78.94
73106;BME280;61559;50.476;15.588;2022-09-01T00:44:28;98076.41;;;11.66;79.00
73106;BME280;61559;50.476;15.588;2022-09-01T00:47:00;98073.17;;;11.62;78.97
73106;BME280;61559;50.476;15.588;2022-09-01T00:49:34;98078.94;;;11.62;78.93
73106;BME280;61559;50.476;15.588;2022-09-01T00:52:08;98077.88;;;11.61;78.94
73106;BME280;61559;50.476;15.588;2022-09-01T00:54:44;98078.32;;;11.60;78.98
73106;BME280;61559;50.476;15.588;2022-09-01T00:57:16;98076.44;;;11.59;79.15
73106;BME280;61559;50.476;15.588;2022-09-01T00:59:50;98074.45;;;11.58;79.11
73106;BME280;61559;50.476;15.588;2022-09-01T01:02:23;98073.94;;;11.56;78.92
73106;BME280;61559;50.476;15.588;2022-09-01T01:04:55;98073.52;;;11.52;78.91
73106;BME280;61559;50.476;15.588;2022-09-01T01:07:28;98072.45;;;11.51;78.79
73106;BME280;61559;50.476;15.588;2022-09-01T01:09:59;98071.88;;;11.48;78.63
73106;BME280;61559;50.476;15.588;2022-09-01T01:12:39;98072.07;;;11.46;78.58
73106;BME280;61559;50.476;15.588;2022-09-01T01:15:13;98069.42;;;11.44;78.40
73106;BME280;61559;50.476;15.588;2022-09-01T01:17:46;98066.17;;;11.43;78.33
73106;BME280;61559;50.476;15.588;2022-09-01T01:20:18;98067.34;;;11.41;78.56
73106;BME280;61559;50.476;15.588;2022-09-01T01:23:15;98063.76;;;11.38;78.52
73106;BME280;61559;50.476;15.588;2022-09-01T01:25:51;98065.20;;;11.36;78.46
73106;BME280;61559;50.476;15.588;2022-09-01T01:28:25;98059.61;;;11.33;78.43
73106;BME280;61559;50.476;15.588;2022-09-01T01:31:17;98056.58;;;11.29;78.55
73106;BME280;61559;50.476;15.588;2022-09-01T01:33:53;98054.48;;;11.23;78.49
73106;BME280;61559;50.476;15.588;2022-09-01T01:36:28;98053.52;;;11.22;78.43
73106;BME280;61559;50.476;15.588;2022-09-01T01:39:04;98047.98;;;11.17;78.62
73106;BME280;61559;50.476;15.588;2022-09-01T01:41:37;98050.43;;;11.18;78.56
73106;BME280;61559;50.476;15.588;2022-09-01T01:44:12;98050.04;;;11.17;78.45
73106;BME280;61559;50.476;15.588;2022-09-01T01:46:47;98046.48;;;11.17;78.73
73106;BME280;61559;50.476;15.588;2022-09-01T01:49:22;98046.26;;;11.13;78.70
73106;BME280;61559;50.476;15.588;2022-09-01T01:51:54;98047.42;;;11.10;78.97
73106;BME280;61559;50.476;15.588;2022-09-01T01:54:27;98044.52;;;11.08;78.93
73106;BME280;61559;50.476;15.588;2022-09-01T01:57:01;98047.04;;;11.07;78.88
73106;BME280;61559;50.476;15.588;2022-09-01T01:59:33;98044.63;;;11.04;78.93
73106;BME280;61559;50.476;15.588;2022-09-01T02:02:04;98043.92;;;11.02;78.88
73106;BME280;61559;50.476;15.588;2022-09-01T02:04:42;98046.53;;;10.98;79.00
73106;BME280;61559;50.476;15.588;2022-09-01T02:07:13;98040.73;;;10.95;78.92
73106;BME280;61559;50.476;15.588;2022-09-01T02:09:45;98041.64;;;10.94;78.82
73106;BME280;61559;50.476;15.588;2022-09-01T02:12:17;98043.02;;;10.94;78.66
73106;BME280;61559;50.476;15.588;2022-09-01T02:14:48;98044.59;;;10.93;78.64
73106;BME280;61559;50.476;15.588;2022-09-01T02:17:19;98042.65;;;10.93;78.73
73106;BME280;61559;50.476;15.588;2022-09-01T02:19:50;98047.20;;;10.89;78.93
73106;BME280;61559;50.476;15.588;2022-09-01T02:22:26;98045.19;;;10.85;79.01
73106;BME280;61559;50.476;15.588;2022-09-01T02:24:57;98044.47;;;10.83;79.01
73106;BME280;61559;50.476;15.588;2022-09-01T02:27:29;98046.92;;;10.82;79.09
73106;BME280;61559;50.476;15.588;2022-09-01T02:30:06;98050.73;;;10.80;79.02
73106;BME280;61559;50.476;15.588;2022-09-01T02:32:40;98051.39;;;10.80;78.97
73106;BME280;61559;50.476;15.588;2022-09-01T02:35:11;98051.90;;;10.78;78.84
73106;BME280;61559;50.476;15.588;2022-09-01T02:37:43;98055.55;;;10.76;78.80
73106;BME280;61559;50.476;15.588;2022-09-01T02:40:18;98051.84;;;10.74;78.93
73106;BME280;61559;50.476;15.588;2022-09-01T02:42:49;98046.23;;;10.71;78.88
73106;BME280;61559;50.476;15.588;2022-09-01T02:45:23;98050.59;;;10.72;78.95
73106;BME280;61559;50.476;15.588;2022-09-01T02:47:55;98052.19;;;10.72;79.10
73106;BME280;61559;50.476;15.588;2022-09-01T02:50:26;98050.90;;;10.70;78.99
73106;BME280;61559;50.476;15.588;2022-09-01T02:52:58;98053.76;;;10.71;79.18
73106;BME280;61559;50.476;15.588;2022-09-01T02:55:32;98052.59;;;10.70;79.32
73106;BME280;61559;50.476;15.588;2022-09-01T02:58:04;98058.52;;;10.71;79.44
73106;BME280;61559;50.476;15.588;2022-09-01T03:00:41;98055.86;;;10.69;79.06
73106;BME280;61559;50.476;15.588;2022-09-01T03:03:12;98051.13;;;10.69;79.02
73106;BME280;61559;50.476;15.588;2022-09-01T03:05:47;98052.28;;;10.68;78.91
73106;BME280;61559;50.476;15.588;2022-09-01T03:08:20;98050.52;;;10.66;78.92
73106;BME280;61559;50.476;15.588;2022-09-01T03:10:52;98042.49;;;10.64;78.86
73106;BME280;61559;50.476;15.588;2022-09-01T03:13:24;98041.39;;;10.62;79.07
73106;BME280;61559;50.476;15.588;2022-09-01T03:15:57;98037.72;;;10.58;79.33
73106;BME280;61559;50.476;15.588;2022-09-01T03:18:29;98037.67;;;10.56;79.06
73106;BME280;61559;50.476;15.588;2022-09-01T03:21:00;98038.41;;;10.53;79.34
73106;BME280;61559;50.476;15.588;2022-09-01T03:23:32;98039.01;;;10.51;79.50
73106;BME280;61559;50.476;15.588;2022-09-01T03:26:03;98039.09;;;10.50;79.23
73106;BME280;61559;50.476;15.588;2022-09-01T03:28:34;98037.04;;;10.47;79.18
73106;BME280;61559;50.476;15.588;2022-09-01T03:31:07;98037.00;;;10.46;79.03
73106;BME280;61559;50.476;15.588;2022-09-01T03:33:38;98038.85;;;10.44;79.01
73106;BME280;61559;50.476;15.588;2022-09-01T03:36:09;98039.52;;;10.41;79.07
73106;BME280;61559;50.476;15.588;2022-09-01T03:38:49;98036.58;;;10.36;79.19
73106;BME280;61559;50.476;15.588;2022-09-01T03:41:22;98034.98;;;10.34;79.28
73106;BME280;61559;50.476;15.588;2022-09-01T03:43:54;98032.31;;;10.32;79.27
73106;BME280;61559;50.476;15.588;2022-09-01T03:46:27;98029.92;;;10.30;79.23
73106;BME280;61559;50.476;15.588;2022-09-01T03:49:05;98029.97;;;10.28;79.39
73106;BME280;61559;50.476;15.588;2022-09-01T03:51:41;98026.91;;;10.24;79.10
73106;BME280;61559;50.476;15.588;2022-09-01T03:54:13;98028.66;;;10.21;79.21
73106;BME280;61559;50.476;15.588;2022-09-01T03:56:42;98027.98;;;10.18;79.11
73106;BME280;61559;50.476;15.588;2022-09-01T03:59:14;98031.96;;;10.13;79.27
73106;BME280;61559;50.476;15.588;2022-09-01T04:01:47;98027.20;;;10.09;79.15
73106;BME280;61559;50.476;15.588;2022-09-01T04:04:18;98032.30;;;10.06;79.28
73106;BME280;61559;50.476;15.588;2022-09-01T04:06:49;98030.50;;;10.02;79.53
73106;BME280;61559;50.476;15.588;2022-09-01T04:09:20;98030.33;;;9.97;79.59
73106;BME280;61559;50.476;15.588;2022-09-01T04:11:50;98029.34;;;9.95;79.54
73106;BME280;61559;50.476;15.588;2022-09-01T04:14:21;98026.44;;;9.91;79.55
73106;BME280;61559;50.476;15.588;2022-09-01T04:16:56;98027.80;;;9.90;79.54
73106;BME280;61559;50.476;15.588;2022-09-01T04:19:44;98030.58;;;9.88;79.69
73106;BME280;61559;50.476;15.588;2022-09-01T04:22:16;98031.67;;;9.89;79.62
73106;BME280;61559;50.476;15.588;2022-09-01T04:24:47;98036.61;;;9.89;79.48
73106;BME280;61559;50.476;15.588;2022-09-01T04:27:18;98035.13;;;9.89;79.48
73106;BME280;61559;50.476;15.588;2022-09-01T04:29:55;98034.55;;;9.89;79.51
73106;BME280;61559;50.476;15.588;2022-09-01T04:32:25;98035.98;;;9.90;79.46
73106;BME280;61559;50.476;15.588;2022-09-01T04:34:56;98037.03;;;9.89;79.51
73106;BME280;61559;50.476;15.588;2022-09-01T04:37:26;98034.19;;;9.90;79.42
73106;BME280;61559;50.476;15.588;2022-09-01T04:39:56;98040.04;;;9.90;79.60
73106;BME280;61559;50.476;15.588;2022-09-01T04:42:29;98036.63;;;9.91;79.59
73106;BME280;61559;50.476;15.588;2022-09-01T04:45:02;98038.13;;;9.93;79.72
73106;BME280;61559;50.476;15.588;2022-09-01T04:47:40;98038.62;;;9.97;79.90
73106;BME280;61559;50.476;15.588;2022-09-01T04:50:12;98036.63;;;9.99;80.02
73106;BME280;61559;50.476;15.588;2022-09-01T04:52:47;98038.02;;;10.03;79.91
73106;BME280;61559;50.476;15.588;2022-09-01T04:55:19;98040.59;;;10.06;79.91
73106;BME280;61559;50.476;15.588;2022-09-01T04:57:50;98045.14;;;10.10;79.97
73106;BME280;61559;50.476;15.588;2022-09-01T05:00:21;98047.30;;;10.15;80.09
73106;BME280;61559;50.476;15.588;2022-09-01T05:02:56;98045.63;;;10.16;80.14
73106;BME280;61559;50.476;15.588;2022-09-01T05:05:38;98048.98;;;10.23;80.32
73106;BME280;61559;50.476;15.588;2022-09-01T05:08:13;98045.79;;;10.29;80.36
73106;BME280;61559;50.476;15.588;2022-09-01T05:10:52;98050.61;;;10.39;80.42
73106;BME280;61559;50.476;15.588;2022-09-01T05:13:25;98047.98;;;10.48;80.41
73106;BME280;61559;50.476;15.588;2022-09-01T05:16:03;98047.83;;;10.60;80.53
73106;BME280;61559;50.476;15.588;2022-09-01T05:18:36;98037.04;;;10.70;80.40
73106;BME280;61559;50.476;15.588;2022-09-01T05:21:11;98042.31;;;10.82;80.25
73106;BME280;61559;50.476;15.588;2022-09-01T05:23:44;98043.48;;;10.94;80.26
73106;BME280;61559;50.476;15.588;2022-09-01T05:26:17;98044.28;;;11.08;80.11
73106;BME280;61559;50.476;15.588;2022-09-01T05:28:50;98035.12;;;11.20;80.00
73106;BME280;61559;50.476;15.588;2022-09-01T05:31:24;98042.14;;;11.35;80.25
73106;BME280;61559;50.476;15.588;2022-09-01T05:33:57;98038.38;;;11.52;80.31
73106;BME280;61559;50.476;15.588;2022-09-01T05:36:29;98040.13;;;11.69;80.39
73106;BME280;61559;50.476;15.588;2022-09-01T05:39:03;98040.23;;;11.87;80.17
73106;BME280;61559;50.476;15.588;2022-09-01T05:41:35;98041.79;;;12.09;79.73
73106;BME280;61559;50.476;15.588;2022-09-01T05:44:06;98040.21;;;12.40;78.88
73106;BME280;61559;50.476;15.588;2022-09-01T05:46:38;98041.48;;;12.71;78.05
73106;BME280;61559;50.476;15.588;2022-09-01T05:49:12;98036.66;;;13.00;77.03
73106;BME280;61559;50.476;15.588;2022-09-01T05:51:46;98038.81;;;13.31;75.57
73106;BME280;61559;50.476;15.588;2022-09-01T05:54:22;98039.84;;;13.62;74.15
73106;BME280;61559;50.476;15.588;2022-09-01T05:56:54;98041.11;;;13.88;73.61
73106;BME280;61559;50.476;15.588;2022-09-01T05:59:46;98041.85;;;14.15;72.59
73106;BME280;61559;50.476;15.588;2022-09-01T06:02:23;98036.28;;;14.35;71.47
73106;BME280;61559;50.476;15.588;2022-09-01T06:04:56;98040.20;;;14.55;70.85
73106;BME280;61559;50.476;15.588;2022-09-01T06:07:28;98036.08;;;14.74;70.00
73106;BME280;61559;50.476;15.588;2022-09-01T06:09:59;98032.52;;;14.88;68.57
73106;BME280;61559;50.476;15.588;2022-09-01T06:12:30;98035.55;;;15.05;67.78
73106;BME280;61559;50.476;15.588;2022-09-01T06:15:03;98034.32;;;15.20;67.61
73106;BME280;61559;50.476;15.588;2022-09-01T06:17:45;98036.60;;;15.31;66.48
73106;BME280;61559;50.476;15.588;2022-09-01T06:20:16;98035.02;;;15.43;65.97
73106;BME280;61559;50.476;15.588;2022-09-01T06:22:47;98040.17;;;15.54;64.40
73106;BME280;61559;50.476;15.588;2022-09-01T06:25:19;98037.23;;;15.59;63.03
73106;BME280;61559;50.476;15.588;2022-09-01T06:27:51;98033.84;;;15.69;64.37
73106;BME280;61559;50.476;15.588;2022-09-01T06:30:23;98030.20;;;15.78;64.31
73106;BME280;61559;50.476;15.588;2022-09-01T06:32:55;98034.12;;;15.82;62.30
73106;BME280;61559;50.476;15.588;2022-09-01T06:35:26;98036.31;;;15.81;62.16
73106;BME280;61559;50.476;15.588;2022-09-01T06:37:59;98036.69;;;15.81;62.85
73106;BME280;61559;50.476;15.588;2022-09-01T06:40:31;98039.98;;;15.82;62.26
73106;BME280;61559;50.476;15.588;2022-09-01T06:43:03;98042.65;;;15.80;62.12
73106;BME280;61559;50.476;15.588;2022-09-01T06:45:41;98047.88;;;15.80;61.86
73106;BME280;61559;50.476;15.588;2022-09-01T06:48:20;98047.95;;;15.88;62.12
73106;BME280;61559;50.476;15.588;2022-09-01T06:50:52;98045.99;;;15.95;61.88
73106;BME280;61559;50.476;15.588;2022-09-01T06:53:43;98044.86;;;16.01;61.55
73106;BME280;61559;50.476;15.588;2022-09-01T06:56:18;98045.44;;;16.09;61.01
73106;BME280;61559;50.476;15.588;2022-09-01T06:58:52;98042.08;;;16.10;60.16
73106;BME280;61559;50.476;15.588;2022-09-01T07:01:24;98038.29;;;16.14;60.34
73106;BME280;61559;50.476;15.588;2022-09-01T07:03:56;98035.34;;;16.14;60.11
73106;BME280;61559;50.476;15.588;2022-09-01T07:06:27;98041.15;;;16.15;59.13
73106;BME280;61559;50.476;15.588;2022-09-01T07:09:19;98041.92;;;16.16;59.26
73106;BME280;61559;50.476;15.588;2022-09-01T07:12:10;98041.59;;;16.18;59.20
73106;BME280;61559;50.476;15.588;2022-09-01T07:14:58;98044.09;;;16.22;59.95
73106;BME280;61559;50.476;15.588;2022-09-01T07:17:51;98046.27;;;16.28;59.14
73106;BME280;61559;50.476;15.588;2022-09-01T07:20:24;98046.21;;;16.31;58.57
73106;BME280;61559;50.476;15.588;2022-09-01T07:22:57;98050.55;;;16.35;58.90
73106;BME280;61559;50.476;15.588;2022-09-01T07:25:34;98044.17;;;16.38;58.65
73106;BME280;61559;50.476;15.588;2022-09-01T07:28:27;98046.27;;;16.44;59.12
73106;BME280;61559;50.476;15.588;2022-09-01T07:31:15;98047.05;;;16.50;58.42
73106;BME280;61559;50.476;15.588;2022-09-01T07:34:11;98047.62;;;16.57;59.08
73106;BME280;61559;50.476;15.588;2022-09-01T07:37:03;98051.98;;;16.66;58.88
73106;BME280;61559;50.476;15.588;2022-09-01T07:39:54;98054.66;;;16.72;58.41
73106;BME280;61559;50.476;15.588;2022-09-01T07:42:25;98054.18;;;16.74;58.21
73106;BME280;61559;50.476;15.588;2022-09-01T07:45:17;98054.24;;;16.76;57.40
73106;BME280;61559;50.476;15.588;2022-09-01T07:47:57;98056.20;;;16.80;57.77
73106;BME280;61559;50.476;15.588;2022-09-01T07:50:32;98051.29;;;16.85;58.06
73106;BME280;61559;50.476;15.588;2022-09-01T07:53:26;98055.61;;;16.92;57.51
73106;BME280;61559;50.476;15.588;2022-09-01T07:56:05;98052.03;;;17.00;58.21
73106;BME280;61559;50.476;15.588;2022-09-01T07:58:39;98058.32;;;17.08;56.96
73106;BME280;61559;50.476;15.588;2022-09-01T08:01:12;98047.88;;;17.10;56.61
73106;BME280;61559;50.476;15.588;2022-09-01T08:03:46;98051.60;;;17.16;56.86
73106;BME280;61559;50.476;15.588;2022-09-01T08:06:20;98048.29;;;17.20;56.97
73106;BME280;61559;50.476;15.588;2022-09-01T08:08:52;98050.23;;;17.27;57.06
73106;BME280;61559;50.476;15.588;2022-09-01T08:11:27;98047.61;;;17.37;56.66
73106;BME280;61559;50.476;15.588;2022-09-01T08:14:19;98051.84;;;17.49;55.43
73106;BME280;61559;50.476;15.588;2022-09-01T08:16:50;98056.91;;;17.56;53.73
73106;BME280;61559;50.476;15.588;2022-09-01T08:19:22;98057.16;;;17.63;53.25
73106;BME280;61559;50.476;15.588;2022-09-01T08:21:53;98063.88;;;17.73;54.37
73106;BME280;61559;50.476;15.588;2022-09-01T08:24:24;98063.29;;;17.80;52.71
73106;BME280;61559;50.476;15.588;2022-09-01T08:26:55;98063.92;;;17.82;52.54
73106;BME280;61559;50.476;15.588;2022-09-01T08:29:26;98065.63;;;17.89;53.36
73106;BME280;61559;50.476;15.588;2022-09-01T08:31:58;98069.78;;;17.95;52.54
73106;BME280;61559;50.476;15.588;2022-09-01T08:34:32;98069.53;;;18.00;50.77
73106;BME280;61559;50.476;15.588;2022-09-01T08:37:05;98071.80;;;18.06;51.15
73106;BME280;61559;50.476;15.588;2022-09-01T08:39:36;98073.63;;;18.11;49.95
73106;BME280;61559;50.476;15.588;2022-09-01T08:42:15;98072.11;;;18.13;48.93
73106;BME280;61559;50.476;15.588;2022-09-01T08:44:56;98069.80;;;18.17;50.07
73106;BME280;61559;50.476;15.588;2022-09-01T08:47:29;98067.49;;;18.26;50.56
73106;BME280;61559;50.476;15.588;2022-09-01T08:50:21;98078.81;;;18.37;47.83
73106;BME280;61559;50.476;15.588;2022-09-01T08:52:57;98072.60;;;18.40;47.20
73106;BME280;61559;50.476;15.588;2022-09-01T08:55:42;98072.86;;;18.45;46.91
73106;BME280;61559;50.476;15.588;2022-09-01T08:58:16;98075.29;;;18.51;46.93
73106;BME280;61559;50.476;15.588;2022-09-01T09:00:53;98073.41;;;18.55;46.79
73106;BME280;61559;50.476;15.588;2022-09-01T09:03:34;98076.72;;;18.52;46.16
73106;BME280;61559;50.476;15.588;2022-09-01T09:06:14;98066.93;;;18.43;46.44
73106;BME280;61559;50.476;15.588;2022-09-01T09:08:58;98071.52;;;18.45;46.97
73106;BME280;61559;50.476;15.588;2022-09-01T09:11:43;98071.33;;;18.54;46.61
73106;BME280;61559;50.476;15.588;2022-09-01T09:14:30;98077.02;;;18.63;46.59
73106;BME280;61559;50.476;15.588;2022-09-01T09:17:04;98074.09;;;18.58;45.12
73106;BME280;61559;50.476;15.588;2022-09-01T09:19:36;98070.52;;;18.54;45.44
73106;BME280;61559;50.476;15.588;2022-09-01T09:22:12;98077.91;;;18.52;45.47
73106;BME280;61559;50.476;15.588;2022-09-01T09:24:47;98077.25;;;18.52;45.65
73106;BME280;61559;50.476;15.588;2022-09-01T09:27:22;98076.36;;;18.56;45.82
73106;BME280;61559;50.476;15.588;2022-09-01T09:29:57;98074.08;;;18.64;46.33
73106;BME280;61559;50.476;15.588;2022-09-01T09:32:48;98069.88;;;18.75;45.81
73106;BME280;61559;50.476;15.588;2022-09-01T09:35:40;98072.29;;;18.89;46.78
73106;BME280;61559;50.476;15.588;2022-09-01T09:38:22;98074.64;;;18.99;47.11
73106;BME280;61559;50.476;15.588;2022-09-01T09:41:00;98068.36;;;19.09;44.38
73106;BME280;61559;50.476;15.588;2022-09-01T09:43:55;98065.15;;;19.13;44.54
73106;BME280;61559;50.476;15.588;2022-09-01T09:46:35;98072.59;;;19.21;44.06
73106;BME280;61559;50.476;15.588;2022-09-01T09:49:17;98071.48;;;19.31;44.16
73106;BME280;61559;50.476;15.588;2022-09-01T09:52:16;98072.01;;;19.36;44.67
73106;BME280;61559;50.476;15.588;2022-09-01T09:55:00;98072.09;;;19.36;43.19
73106;BME280;61559;50.476;15.588;2022-09-01T09:57:38;98071.48;;;19.36;42.63
73106;BME280;61559;50.476;15.588;2022-09-01T10:00:19;98068.84;;;19.43;43.90
73106;BME280;61559;50.476;15.588;2022-09-01T10:02:56;98067.05;;;19.48;43.00
73106;BME280;61559;50.476;15.588;2022-09-01T10:05:42;98070.20;;;19.45;44.51
73106;BME280;61559;50.476;15.588;2022-09-01T10:08:12;98073.44;;;19.46;42.10
73106;BME280;61559;50.476;15.588;2022-09-01T10:10:50;98076.75;;;19.43;43.21
73106;BME280;61559;50.476;15.588;2022-09-01T10:13:28;98070.82;;;19.37;43.51
73106;BME280;61559;50.476;15.588;2022-09-01T10:16:03;98071.16;;;19.34;44.74
73106;BME280;61559;50.476;15.588;2022-09-01T10:18:40;98073.84;;;19.25;44.82
73106;BME280;61559;50.476;15.588;2022-09-01T10:21:19;98077.71;;;19.24;45.24
73106;BME280;61559;50.476;15.588;2022-09-01T10:23:53;98087.59;;;19.21;46.00
73106;BME280;61559;50.476;15.588;2022-09-01T10:26:46;98087.83;;;19.03;45.91
73106;BME280;61559;50.476;15.588;2022-09-01T10:29:19;98086.91;;;18.89;46.74
73106;BME280;61559;50.476;15.588;2022-09-01T10:31:51;98090.75;;;18.79;46.01
73106;BME280;61559;50.476;15.588;2022-09-01T10:34:44;98096.21;;;18.68;47.35
73106;BME280;61559;50.476;15.588;2022-09-01T10:37:16;98097.66;;;18.62;47.87
73106;BME280;61559;50.476;15.588;2022-09-01T10:40:11;98100.20;;;18.51;48.09
73106;BME280;61559;50.476;15.588;2022-09-01T10:42:48;98098.39;;;18.44;48.09
73106;BME280;61559;50.476;15.588;2022-09-01T10:45:34;98096.46;;;18.36;48.76
73106;BME280;61559;50.476;15.588;2022-09-01T10:48:28;98097.16;;;18.30;48.58
73106;BME280;61559;50.476;15.588;2022-09-01T10:54:07;98098.79;;;18.22;46.77
73106;BME280;61559;50.476;15.588;2022-09-01T10:56:42;98102.02;;;18.19;47.27
73106;BME280;61559;50.476;15.588;2022-09-01T10:59:27;98100.83;;;18.19;47.74
73106;BME280;61559;50.476;15.588;2022-09-01T11:02:10;98094.50;;;18.12;47.20
73106;BME280;61559;50.476;15.588;2022-09-01T11:05:18;98099.48;;;18.12;49.02
73106;BME280;61559;50.476;15.588;2022-09-01T11:07:49;98098.04;;;18.14;48.25
73106;BME280;61559;50.476;15.588;2022-09-01T11:10:44;98094.89;;;18.16;48.01
73106;BME280;61559;50.476;15.588;2022-09-01T11:13:32;98093.19;;;18.17;48.55
73106;BME280;61559;50.476;15.588;2022-09-01T11:16:27;98088.91;;;18.24;49.77
73106;BME280;61559;50.476;15.588;2022-09-01T11:19:32;98086.91;;;18.36;49.78
73106;BME280;61559;50.476;15.588;2022-09-01T11:22:23;98083.25;;;18.51;48.98
73106;BME280;61559;50.476;15.588;2022-09-01T11:25:36;98074.91;;;18.69;50.31
73106;BME280;61559;50.476;15.588;2022-09-01T11:28:38;98074.63;;;18.99;48.44
73106;BME280;61559;50.476;15.588;2022-09-01T11:31:27;98068.80;;;19.22;45.67
73106;BME280;61559;50.476;15.588;2022-09-01T11:34:16;98071.12;;;19.37;45.16
73106;BME280;61559;50.476;15.588;2022-09-01T11:36:59;98069.10;;;19.36;43.79
73106;BME280;61559;50.476;15.588;2022-09-01T11:39:38;98073.16;;;19.24;43.48
73106;BME280;61559;50.476;15.588;2022-09-01T11:42:16;98071.36;;;19.19;44.30
73106;BME280;61559;50.476;15.588;2022-09-01T11:44:52;98068.53;;;19.15;44.14
73106;BME280;61559;50.476;15.588;2022-09-01T11:47:29;98069.06;;;19.11;44.30
73106;BME280;61559;50.476;15.588;2022-09-01T11:50:05;98070.20;;;19.12;44.83
73106;BME280;61559;50.476;15.588;2022-09-01T11:52:38;98065.16;;;19.14;44.50
73106;BME280;61559;50.476;15.588;2022-09-01T11:55:10;98064.91;;;19.17;45.06
73106;BME280;61559;50.476;15.588;2022-09-01T11:57:41;98061.41;;;19.17;44.71
73106;BME280;61559;50.476;15.588;2022-09-01T12:00:16;98064.67;;;19.16;45.21
73106;BME280;61559;50.476;15.588;2022-09-01T12:02:54;98065.55;;;19.19;44.41
73106;BME280;61559;50.476;15.588;2022-09-01T12:05:29;98064.63;;;19.27;43.98
73106;BME280;61559;50.476;15.588;2022-09-01T12:08:03;98065.95;;;19.36;42.02
73106;BME280;61559;50.476;15.588;2022-09-01T12:10:37;98063.59;;;19.28;41.61
73106;BME280;61559;50.476;15.588;2022-09-01T12:13:11;98064.23;;;19.21;42.73
73106;BME280;61559;50.476;15.588;2022-09-01T12:15:42;98063.44;;;19.18;43.19
73106;BME280;61559;50.476;15.588;2022-09-01T12:18:34;98057.88;;;19.15;44.11
73106;BME280;61559;50.476;15.588;2022-09-01T12:21:19;98062.05;;;19.11;44.07
73106;BME280;61559;50.476;15.588;2022-09-01T12:23:51;98056.54;;;19.06;44.59
73106;BME280;61559;50.476;15.588;2022-09-01T12:26:30;98056.17;;;19.01;44.29
73106;BME280;61559;50.476;15.588;2022-09-01T12:29:01;98050.33;;;19.00;44.72
73106;BME280;61559;50.476;15.588;2022-09-01T12:31:34;98043.89;;;19.08;44.69
73106;BME280;61559;50.476;15.588;2022-09-01T12:34:05;98042.23;;;19.21;43.93
73106;BME280;61559;50.476;15.588;2022-09-01T12:37:06;98039.77;;;19.30;43.98
73106;BME280;61559;50.476;15.588;2022-09-01T12:39:39;98033.69;;;19.38;43.35
73106;BME280;61559;50.476;15.588;2022-09-01T12:42:21;98030.30;;;19.47;43.54
73106;BME280;61559;50.476;15.588;2022-09-01T12:44:56;98031.05;;;19.55;43.33
73106;BME280;61559;50.476;15.588;2022-09-01T12:47:49;98025.23;;;19.60;42.68
73106;BME280;61559;50.476;15.588;2022-09-01T12:50:43;98024.73;;;19.63;42.18
73106;BME280;61559;50.476;15.588;2022-09-01T12:53:29;98026.80;;;19.60;42.40
73106;BME280;61559;50.476;15.588;2022-09-01T12:56:04;98022.98;;;19.59;41.80
73106;BME280;61559;50.476;15.588;2022-09-01T12:58:35;98016.81;;;19.61;41.31
73106;BME280;61559;50.476;15.588;2022-09-01T13:01:07;98012.16;;;19.71;41.53
73106;BME280;61559;50.476;15.588;2022-09-01T13:06:55;98010.23;;;19.89;37.48
73106;BME280;61559;50.476;15.588;2022-09-01T13:09:32;98009.73;;;19.91;38.06
73106;BME280;61559;50.476;15.588;2022-09-01T13:12:19;98002.04;;;19.99;39.45
73106;BME280;61559;50.476;15.588;2022-09-01T13:14:51;97999.92;;;20.10;40.35
73106;BME280;61559;50.476;15.588;2022-09-01T13:17:22;98002.88;;;20.19;39.87
73106;BME280;61559;50.476;15.588;2022-09-01T13:19:53;98011.27;;;20.21;40.48
73106;BME280;61559;50.476;15.588;2022-09-01T13:22:24;98010.03;;;20.18;41.24
73106;BME280;61559;50.476;15.588;2022-09-01T13:24:55;98012.48;;;19.99;41.72
73106;BME280;61559;50.476;15.588;2022-09-01T13:27:27;98017.27;;;19.73;42.12
73106;BME280;61559;50.476;15.588;2022-09-01T13:29:58;98018.48;;;19.54;43.08
73106;BME280;61559;50.476;15.588;2022-09-01T13:32:29;98020.92;;;19.38;42.45
73106;BME280;61559;50.476;15.588;2022-09-01T13:35:00;98019.05;;;19.22;42.53
73106;BME280;61559;50.476;15.588;2022-09-01T13:37:31;98019.34;;;19.18;44.36
73106;BME280;61559;50.476;15.588;2022-09-01T13:40:03;98021.16;;;19.20;45.53
73106;BME280;61559;50.476;15.588;2022-09-01T13:42:37;98014.08;;;19.24;45.86
73106;BME280;61559;50.476;15.588;2022-09-01T13:45:13;98016.30;;;19.28;46.79